Time;durP1;ratioP1;P1;durP2;ratioP2;P2;SDS_P1;SDS_P2;PMS_P1;PMS_P2;Temp;Humidity;BMP_temperature;BMP_pressure;BME280_temperature;BME280_humidity;BME280_pressure;Samples;Min_cycle;Max_cycle;Signal;HPM_P1;HPM_P2
2021/07/05 00:00:12;;;;;;;4.63;3.40;;;;;;;15.60;100.00;98627.06;10463792;28;20179;-79
2021/07/05 00:05:31;;;;;;;12.33;3.27;;;;;;;15.60;100.00;98630.59;10500410;28;20281;-79
2021/07/05 00:10:50;;;;;;;5.60;3.60;;;;;;;15.51;100.00;98627.72;10503088;28;20171;-79
2021/07/05 00:16:09;;;;;;;4.70;3.13;;;;;;;15.47;100.00;98631.81;10502774;28;20187;-80
2021/07/05 00:21:28;;;;;;;8.37;4.40;;;;;;;15.42;100.00;98641.47;10501513;28;20621;-80
2021/07/05 00:26:47;;;;;;;5.33;4.40;;;;;;;15.45;100.00;98643.34;10501336;28;20561;-80
2021/07/05 00:32:06;;;;;;;5.47;5.07;;;;;;;15.50;100.00;98636.47;10502245;28;20610;-80
2021/07/05 00:37:25;;;;;;;10.13;5.47;;;;;;;15.45;100.00;98643.34;10499987;28;20732;-80
2021/07/05 00:42:45;;;;;;;4.97;4.57;;;;;;;15.42;100.00;98641.47;10501741;28;20190;-80
2021/07/05 00:48:05;;;;;;;5.67;5.13;;;;;;;15.41;100.00;98641.91;10498820;28;20281;-81
2021/07/05 00:53:24;;;;;;;12.50;5.60;;;;;;;15.25;100.00;98634.47;10501286;28;20178;-79
2021/07/05 00:58:43;;;;;;;8.03;5.20;;;;;;;15.30;100.00;98638.69;10501305;28;20179;-80
2021/07/05 01:04:02;;;;;;;10.13;7.27;;;;;;;15.21;100.00;98644.06;10499055;28;20213;-79
2021/07/05 01:09:21;;;;;;;8.37;6.20;;;;;;;15.19;100.00;98638.94;10499992;28;20257;-80
2021/07/05 01:14:41;;;;;;;9.00;5.77;;;;;;;15.13;100.00;98648.25;10500632;28;20182;-80
2021/07/05 01:20:00;;;;;;;8.87;5.50;;;;;;;15.09;100.00;98655.13;10497767;28;20179;-80
2021/07/05 01:25:26;;;;;;;5.60;5.07;;;;;;;14.99;100.00;98636.81;10498612;28;20210;-79
2021/07/05 01:30:47;;;;;;;6.13;5.63;;;;;;;15.01;100.00;98635.16;10499854;28;20175;-80
2021/07/05 01:36:06;;;;;;;5.00;4.60;;;;;;;14.88;100.00;98626.03;10496807;28;20219;-79
2021/07/05 01:41:25;;;;;;;7.60;4.83;;;;;;;14.81;100.00;98630.97;10499394;28;20178;-78
2021/07/05 01:46:43;;;;;;;5.10;4.70;;;;;;;14.74;100.00;98622.88;10498593;28;20292;-80
2021/07/05 01:52:03;;;;;;;7.33;5.77;;;;;;;14.71;100.00;98618.19;10497876;28;20167;-80
2021/07/05 01:57:25;;;;;;;6.13;5.30;;;;;;;14.76;100.00;98612.91;10497937;28;20163;-80
2021/07/05 02:02:46;;;;;;;8.33;5.37;;;;;;;14.69;100.00;98604.81;10498536;28;20182;-80
2021/07/05 02:08:06;;;;;;;7.07;6.17;;;;;;;14.61;100.00;98610.97;10496919;28;20211;-79
2021/07/05 02:13:28;;;;;;;6.40;5.90;;;;;;;14.52;100.00;98608.81;10497193;28;20170;-79
2021/07/05 02:18:47;;;;;;;5.93;5.43;;;;;;;14.61;100.00;98606.22;10495007;28;20190;-79
2021/07/05 02:24:06;;;;;;;5.20;4.70;;;;;;;14.57;100.00;98601.97;10496453;28;20186;-79
2021/07/05 02:29:25;;;;;;;5.43;5.10;;;;;;;14.68;100.00;98610.78;10497048;28;20174;-81
2021/07/05 02:34:44;;;;;;;6.70;5.87;;;;;;;14.71;100.00;98619.00;10496214;28;20226;-79
2021/07/05 02:40:09;;;;;;;8.00;6.00;;;;;;;14.58;100.00;98609.06;10497609;28;20175;-79
2021/07/05 02:45:29;;;;;;;8.57;6.23;;;;;;;14.62;100.00;98612.50;10455892;28;20211;-79
2021/07/05 02:50:51;;;;;;;7.30;5.87;;;;;;;14.47;100.00;98609.38;10454784;28;20179;-79
2021/07/05 02:56:10;;;;;;;6.20;5.80;;;;;;;14.38;100.00;98617.50;10454921;28;20172;-80
2021/07/05 03:01:29;;;;;;;9.87;6.80;;;;;;;14.29;100.00;98619.34;10455772;28;20175;-79
2021/07/05 03:06:48;;;;;;;5.87;5.37;;;;;;;14.24;100.00;98619.09;10452976;28;20705;-79
2021/07/05 03:12:10;;;;;;;6.47;4.73;;;;;;;14.17;100.00;98619.28;10471208;28;20244;-79
2021/07/05 03:17:30;;;;;;;8.20;5.87;;;;;;;14.12;100.00;98615.06;10495741;28;20179;-79
2021/07/05 03:22:50;;;;;;;13.70;6.07;;;;;;;14.06;100.00;98616.72;10494943;28;20175;-78
2021/07/05 03:28:12;;;;;;;6.83;5.70;;;;;;;14.04;100.00;98624.72;10496071;28;20194;-79
2021/07/05 03:33:32;;;;;;;8.40;6.40;;;;;;;14.04;100.00;98627.47;10495573;28;20222;-79
2021/07/05 03:38:51;;;;;;;8.33;5.80;;;;;;;14.12;100.00;98642.72;10503155;28;20637;-78
2021/07/05 03:44:10;;;;;;;8.47;4.87;;;;;;;14.15;100.00;98650.13;10503561;28;20203;-79
2021/07/05 03:49:29;;;;;;;5.40;5.00;;;;;;;14.05;100.00;98636.53;10501683;28;20629;-79
2021/07/05 03:54:48;;;;;;;6.60;6.10;;;;;;;14.03;100.00;98630.66;10503791;28;20183;-78
2021/07/05 04:00:16;;;;;;;8.67;5.70;;;;;;;14.07;100.00;98626.59;10503507;28;20629;-79
2021/07/05 04:05:35;;;;;;;6.40;5.80;;;;;;;14.13;100.00;98619.38;10500629;28;20290;-79
2021/07/05 04:10:55;;;;;;;7.00;5.70;;;;;;;14.20;100.00;98612.88;10503223;28;20178;-79
2021/07/05 04:16:14;;;;;;;9.80;6.50;;;;;;;14.24;100.00;98613.56;10502969;28;20179;-79
2021/07/05 04:21:33;;;;;;;7.73;6.20;;;;;;;14.35;100.00;98626.69;10500496;28;20530;-79
2021/07/05 04:26:52;;;;;;;6.97;5.83;;;;;;;14.45;100.00;98619.31;10501143;28;20234;-80
2021/07/05 04:32:11;;;;;;;11.40;7.23;;;;;;;14.79;100.00;98630.63;10501357;28;20262;-80
2021/07/05 04:37:30;;;;;;;8.00;7.20;;;;;;;14.88;100.00;98626.03;10499879;28;20254;-79
2021/07/05 04:42:50;;;;;;;8.23;5.47;;;;;;;15.14;100.00;98631.19;10501178;28;20277;-79
2021/07/05 04:48:10;;;;;;;7.70;6.90;;;;;;;15.36;100.00;98634.16;10456969;28;20215;-80
2021/07/05 04:53:30;;;;;;;11.90;8.33;;;;;;;15.49;100.00;98627.41;10459129;28;20203;-79
2021/07/05 04:58:49;;;;;;;9.57;7.20;;;;;;;15.78;100.00;98619.75;10458498;28;20167;-81
2021/07/05 05:04:08;;;;;;;10.43;7.50;;;;;;;16.13;100.00;98613.81;10479250;28;20195;-80
2021/07/05 05:09:27;;;;;;;11.83;7.97;;;;;;;16.54;100.00;98624.72;10499352;28;20182;-80
2021/07/05 05:14:46;;;;;;;8.70;7.80;;;;;;;17.00;100.00;98613.53;10499235;28;20175;-79
2021/07/05 05:20:08;;;;;;;9.90;7.43;;;;;;;17.31;100.00;98617.13;10498710;28;20617;-80
2021/07/05 05:25:27;;;;;;;10.83;5.00;;;;;;;17.51;100.00;98628.69;10498657;28;20324;-80
2021/07/05 05:30:47;;;;;;;6.30;5.50;;;;;;;17.46;100.00;98632.03;10499135;28;20207;-80
2021/07/05 05:36:06;;;;;;;4.57;4.17;;;;;;;17.61;100.00;98621.91;10496795;28;20298;-80
2021/07/05 05:41:24;;;;;;;4.23;3.80;;;;;;;17.83;100.00;98625.44;10499574;28;20240;-78
2021/07/05 05:46:43;;;;;;;11.63;4.23;;;;;;;17.62;100.00;98626.25;10498994;28;20233;-79
2021/07/05 05:52:03;;;;;;;6.67;4.00;;;;;;;17.40;100.00;98622.75;10496484;28;20179;-79
2021/07/05 05:57:29;;;;;;;7.43;3.67;;;;;;;17.44;100.00;98623.41;10498232;28;20190;-79
2021/07/05 06:02:49;;;;;;;3.80;3.50;;;;;;;17.44;100.00;98631.75;10498695;28;20206;-79
2021/07/05 06:08:09;;;;;;;3.80;2.90;;;;;;;17.45;100.00;98630.50;10497056;28;20206;-80
2021/07/05 06:13:27;;;;;;;8.00;3.20;;;;;;;17.33;100.00;98627.81;10498190;28;20261;-79
2021/07/05 06:18:46;;;;;;;6.53;3.47;;;;;;;17.21;100.00;98623.06;10495932;28;20175;-79
2021/07/05 06:24:06;;;;;;;4.40;3.13;;;;;;;17.04;100.00;98622.50;10495004;28;20273;-79
2021/07/05 06:29:25;;;;;;;2.90;2.70;;;;;;;17.04;100.00;98628.06;10496712;28;20265;-80
2021/07/05 06:34:44;;;;;;;3.93;3.20;;;;;;;17.27;100.00;98616.47;10495448;28;20222;-80
2021/07/05 06:40:07;;;;;;;3.60;3.30;;;;;;;17.60;100.00;98618.38;10493182;28;20238;-79
2021/07/05 06:45:26;;;;;;;4.53;3.00;;;;;;;17.84;100.00;98616.63;10494905;28;20209;-80
2021/07/05 06:50:45;;;;;;;2.60;2.40;;;;;;;17.96;100.00;98612.16;10493770;28;20195;-80
2021/07/05 06:56:04;;;;;;;7.40;2.60;;;;;;;18.02;100.00;98613.09;10496366;28;20194;-80
2021/07/05 07:01:23;;;;;;;2.80;2.60;;;;;;;18.29;100.00;98611.22;10495380;28;20183;-80
2021/07/05 07:06:47;;;;;;;2.83;2.50;;;;;;;18.69;100.00;98609.84;10485982;28;20214;-78
2021/07/05 07:12:06;;;;;;;2.97;2.67;;;;;;;18.16;100.00;98620.91;10503654;28;20257;-79
2021/07/05 07:17:35;;;;;;;3.40;2.43;;;;;;;18.04;100.00;98608.66;10502286;28;20210;-78
2021/07/05 07:22:55;;;;;;;2.73;2.53;;;;;;;18.08;100.00;98619.66;10501010;28;20182;-79
2021/07/05 07:28:14;;;;;;;3.00;2.80;;;;;;;17.97;100.00;98613.72;10503318;28;20803;-79
2021/07/05 07:33:33;;;;;;;2.83;2.60;;;;;;;18.01;100.00;98614.38;10501260;28;20232;-79
2021/07/05 07:38:56;;;;;;;2.60;2.40;;;;;;;18.12;100.00;98620.25;10502937;28;20194;-80
2021/07/05 07:44:15;;;;;;;5.40;3.00;;;;;;;18.02;100.00;98622.25;10502057;28;20194;-79
2021/07/05 07:49:34;;;;;;;3.40;3.10;;;;;;;18.26;100.00;98625.25;10501646;28;20198;-81
2021/07/05 07:54:53;;;;;;;4.50;3.10;;;;;;;18.29;100.00;98624.34;10501111;28;20190;-79
2021/07/05 08:00:15;;;;;;;4.63;3.10;;;;;;;18.53;100.00;98612.16;10500545;28;20810;-78
2021/07/05 08:05:35;;;;;;;8.93;3.13;;;;;;;18.68;100.00;98607.53;10501054;28;20309;-78
2021/07/05 08:10:54;;;;;;;3.20;3.00;;;;;;;18.68;100.00;98610.31;10461613;28;20568;-80
2021/07/05 08:16:15;;;;;;;3.07;2.87;;;;;;;18.68;100.00;98601.97;10493030;28;20641;-79
2021/07/05 08:21:36;;;;;;;3.10;2.80;;;;;;;18.88;100.00;98596.66;10499952;28;20190;-78
2021/07/05 08:26:56;;;;;;;3.47;3.10;;;;;;;19.09;100.00;98604.84;10502665;28;20202;-78
2021/07/05 08:32:14;;;;;;;3.20;3.00;;;;;;;18.87;100.00;98597.91;10501869;28;20194;-78
2021/07/05 08:37:34;;;;;;;4.10;3.40;;;;;;;18.73;100.00;98607.69;10499142;28;20226;-79
2021/07/05 08:42:55;;;;;;;3.70;3.40;;;;;;;18.71;100.00;98606.59;10501312;28;20179;-78
2021/07/05 08:48:14;;;;;;;3.73;3.50;;;;;;;18.71;100.00;98614.94;10499987;28;20209;-79
2021/07/05 08:53:33;;;;;;;3.97;3.67;;;;;;;18.83;100.00;98611.25;10498831;28;20637;-79
2021/07/05 08:58:52;;;;;;;3.73;3.43;;;;;;;18.91;100.00;98609.69;10501641;28;20170;-78
2021/07/05 09:04:15;;;;;;;3.27;3.07;;;;;;;18.99;100.00;98606.09;10500347;28;20625;-78
2021/07/05 09:09:35;;;;;;;4.00;3.70;;;;;;;19.15;100.00;98611.38;10503053;28;20189;-80
2021/07/05 09:15:05;;;;;;;4.33;3.90;;;;;;;18.99;100.00;98614.47;10499875;28;20186;-79
2021/07/05 09:20:24;;;;;;;4.07;3.87;;;;;;;18.88;100.00;98618.97;10498086;28;20171;-79
2021/07/05 09:25:46;;;;;;;4.47;4.07;;;;;;;18.94;100.00;98615.09;10500182;28;20289;-77
2021/07/05 09:31:05;;;;;;;4.77;4.23;;;;;;;18.97;100.00;98618.97;10499045;28;20630;-78
2021/07/05 09:36:25;;;;;;;4.43;4.17;;;;;;;18.85;100.00;98617.88;10497447;28;20477;-77
2021/07/05 09:42:09;;;;;;;7.03;4.37;;;;;;;19.02;100.00;98616.34;10498746;28;20656;-83
2021/07/05 09:47:28;;;;;;;5.60;4.63;;;;;;;19.49;100.00;98602.63;10497953;28;20238;-79
2021/07/05 09:52:47;;;;;;;4.17;3.87;;;;;;;19.99;100.00;98610.97;10496721;28;20261;-83
2021/07/05 09:58:06;;;;;;;4.33;4.03;;;;;;;20.12;100.00;98608.72;10497235;28;20179;-81
2021/07/05 10:03:34;;;;;;;4.50;4.10;;;;;;;20.01;100.00;98610.50;10496369;28;20261;-83
2021/07/05 10:08:55;;;;;;;4.00;3.80;;;;;;;19.85;100.00;98606.03;10496669;28;20556;-82
2021/07/05 10:14:21;;;;;;;4.13;3.93;;;;;;;20.67;100.00;98612.69;10497514;28;20206;-84
2021/07/05 10:19:41;;;;;;;4.20;3.90;;;;;;;20.59;100.00;98620.69;10496532;28;20182;-82
2021/07/05 10:25:00;;;;;;;3.17;2.97;;;;;;;20.65;100.00;98612.41;10497069;28;20562;-82
2021/07/05 10:30:20;;;;;;;2.70;2.50;;;;;;;20.53;100.00;98617.00;10498171;28;20179;-85
2021/07/05 10:35:46;;;;;;;5.60;2.93;;;;;;;20.88;100.00;98610.38;10495775;28;20226;-82
2021/07/05 10:41:11;;;;;;;3.60;2.90;;;;;;;21.58;100.00;98611.41;10498049;28;20171;-82
2021/07/05 10:46:50;;;;;;;2.40;2.30;;;;;;;21.40;100.00;98600.41;10497852;28;20206;-82
2021/07/05 10:52:12;;;;;;;2.80;2.60;;;;;;;21.62;100.00;98598.00;10496574;28;20178;-83
2021/07/05 10:57:31;;;;;;;2.73;2.53;;;;;;;22.16;100.00;98590.44;10498684;28;20171;-83
2021/07/05 11:02:53;;;;;;;4.30;3.37;;;;;;;21.58;100.00;98591.81;10498568;28;20171;-82
2021/07/05 11:08:15;;;;;;;2.73;2.53;;;;;;;22.38;96.07;98587.19;10497123;28;20206;-82
2021/07/05 11:13:34;;;;;;;3.07;2.60;;;;;;;23.42;92.49;98584.28;10497494;28;20179;-81
2021/07/05 11:18:53;;;;;;;3.63;2.40;;;;;;;23.66;89.23;98584.78;10494903;28;20190;-80
2021/07/05 11:24:13;;;;;;;4.17;2.13;;;;;;;24.18;84.23;98577.75;10496721;28;20759;-83
2021/07/05 11:29:44;;;;;;;8.00;2.13;;;;;;;24.71;63.75;98580.59;10497196;28;20206;-82
2021/07/05 11:35:24;;;;;;;5.03;2.00;;;;;;;23.34;64.99;98583.19;10494443;28;20214;-84
2021/07/05 11:40:53;;;;;;;3.97;2.10;;;;;;;22.60;69.11;98575.00;10495233;28;20218;-81
2021/07/05 11:46:18;;;;;;;2.80;2.10;;;;;;;23.30;69.26;98567.88;10497104;28;20203;-80
2021/07/05 11:51:44;;;;;;;5.43;1.93;;;;;;;22.71;69.01;98563.13;10495555;28;20183;-80
2021/07/05 11:57:06;;;;;;;2.00;1.90;;;;;;;22.53;70.20;98569.06;10501600;28;20175;-79
2021/07/05 12:02:27;;;;;;;2.53;2.00;;;;;;;22.72;67.21;98562.66;10502547;28;20203;-79
2021/07/05 12:07:59;;;;;;;2.10;1.90;;;;;;;23.18;70.05;98568.28;10501451;28;20297;-83
2021/07/05 12:13:23;;;;;;;2.77;1.70;;;;;;;23.47;67.53;98558.31;10502804;28;20203;-82
2021/07/05 12:18:57;;;;;;;2.40;2.20;;;;;;;22.93;70.82;98564.16;10501959;28;20170;-80
2021/07/05 12:24:20;;;;;;;2.17;2.00;;;;;;;22.77;71.40;98555.56;10502814;28;20520;-79
2021/07/05 12:29:44;;;;;;;3.47;2.13;;;;;;;21.99;75.28;98567.00;10502665;28;20206;-82
2021/07/05 12:35:06;;;;;;;2.17;2.07;;;;;;;22.48;71.82;98571.78;10499964;28;20214;-79
2021/07/05 12:40:31;;;;;;;4.40;2.17;;;;;;;23.19;66.27;98564.16;10501916;28;20179;-80
2021/07/05 12:45:55;;;;;;;1.70;1.60;;;;;;;24.04;65.42;98555.41;10501120;28;20669;-81
2021/07/05 12:51:14;;;;;;;2.13;1.60;;;;;;;22.54;67.25;98562.94;10499509;28;20265;-81
2021/07/05 12:56:33;;;;;;;1.97;1.67;;;;;;;22.06;68.06;98563.78;10501791;28;20178;-80
2021/07/05 13:01:52;;;;;;;5.53;2.13;;;;;;;22.22;71.09;98570.91;10501263;28;20198;-80
2021/07/05 13:07:21;;;;;;;1.70;1.47;;;;;;;22.17;75.93;98563.19;10499412;28;20210;-80
2021/07/05 13:13:11;;;;;;;6.23;1.60;;;;;;;21.65;77.42;98563.44;10501040;28;20183;-80
2021/07/05 13:18:34;;;;;;;2.10;1.90;;;;;;;21.25;77.16;98577.22;10498326;28;20183;-81
2021/07/05 13:23:54;;;;;;;1.30;1.20;;;;;;;21.93;74.53;98570.97;10470496;28;20214;-81
2021/07/05 13:29:22;;;;;;;1.20;1.00;;;;;;;22.12;70.78;98555.47;10498452;28;20210;-83
2021/07/05 13:34:44;;;;;;;1.10;0.87;;;;;;;22.46;71.57;98552.63;10498802;28;20218;-81
2021/07/05 13:40:06;;;;;;;1.17;0.87;;;;;;;22.06;71.02;98563.03;10499750;28;20179;-80
2021/07/05 13:45:32;;;;;;;1.00;0.70;;;;;;;22.63;70.33;98550.78;10498753;28;20202;-81
2021/07/05 13:50:53;;;;;;;1.70;1.03;;;;;;;22.44;70.72;98560.00;10498362;28;20179;-82
2021/07/05 13:56:15;;;;;;;1.70;1.10;;;;;;;21.72;72.33;98573.00;10497638;28;20182;-82
2021/07/05 14:01:34;;;;;;;1.77;1.10;;;;;;;22.56;71.41;98546.41;10497487;28;20214;-82
2021/07/05 14:06:53;;;;;;;1.20;1.10;;;;;;;22.18;71.82;98545.88;10495785;28;20206;-81
2021/07/05 14:12:12;;;;;;;1.23;1.13;;;;;;;22.51;73.13;98543.53;10497724;28;20618;-81
2021/07/05 14:17:31;;;;;;;2.20;1.10;;;;;;;22.95;73.30;98541.19;10498192;28;20175;-84
2021/07/05 14:22:51;;;;;;;1.30;1.13;;;;;;;22.43;74.80;98548.03;10496435;28;20175;-83
2021/07/05 14:28:10;;;;;;;1.20;1.03;;;;;;;22.26;73.36;98549.81;10497414;28;20210;-82
2021/07/05 14:33:30;;;;;;;1.20;0.90;;;;;;;22.50;73.24;98530.78;10496964;28;20226;-81
2021/07/05 14:38:50;;;;;;;1.67;0.80;;;;;;;22.48;74.28;98533.28;10497886;28;20530;-82
2021/07/05 14:44:10;;;;;;;1.57;1.10;;;;;;;22.70;72.73;98527.94;10496846;28;20205;-81
2021/07/05 14:49:29;;;;;;;1.30;0.77;;;;;;;22.75;70.74;98532.84;10495531;28;20284;-84
2021/07/05 14:54:48;;;;;;;2.07;0.90;;;;;;;22.29;75.26;98548.84;10496786;28;20182;-83
2021/07/05 15:00:13;;;;;;;1.00;0.80;;;;;;;22.41;74.40;98538.56;10497166;28;20273;-82
2021/07/05 15:05:33;;;;;;;1.03;0.80;;;;;;;22.59;73.44;98531.38;10494680;28;20206;-85
2021/07/05 15:10:52;;;;;;;1.83;0.80;;;;;;;23.04;72.49;98530.63;10497271;28;20535;-84
2021/07/05 15:16:11;;;;;;;1.33;0.70;;;;;;;22.75;74.16;98527.25;10496161;28;20179;-84
2021/07/05 15:21:30;;;;;;;1.10;0.87;;;;;;;22.87;72.56;98526.06;10494480;28;20175;-84
2021/07/05 15:26:49;;;;;;;1.53;0.80;;;;;;;22.49;72.85;98520.06;10495470;28;20198;-83
2021/07/05 15:32:08;;;;;;;1.00;0.80;;;;;;;22.32;76.84;98519.84;10502553;28;20183;-83
2021/07/05 15:37:27;;;;;;;1.67;0.90;;;;;;;22.28;77.01;98526.91;10502623;28;20696;-82
2021/07/05 15:42:47;;;;;;;1.60;1.00;;;;;;;22.15;78.70;98527.25;10504229;28;20187;-84
2021/07/05 15:48:06;;;;;;;1.10;0.90;;;;;;;22.16;79.31;98530.84;10502506;28;20198;-84
2021/07/05 15:53:25;;;;;;;1.10;0.87;;;;;;;22.16;79.56;98522.44;10501854;28;20186;-85
2021/07/05 15:58:44;;;;;;;1.00;0.90;;;;;;;22.44;79.35;98513.13;10503674;28;20701;-84
2021/07/05 16:04:03;;;;;;;1.10;0.80;;;;;;;22.13;79.28;98515.00;10501274;28;20582;-82
2021/07/05 16:09:22;;;;;;;1.10;0.90;;;;;;;22.41;78.79;98510.53;10502778;28;20202;-82
2021/07/05 16:14:41;;;;;;;1.10;1.00;;;;;;;22.70;76.39;98513.91;10502224;28;20174;-82
2021/07/05 16:20:01;;;;;;;1.20;1.10;;;;;;;23.20;75.15;98509.59;10500766;28;20178;-82
2021/07/05 16:25:20;;;;;;;1.30;1.00;;;;;;;23.03;75.08;98514.25;10502242;28;20214;-82
2021/07/05 16:30:41;;;;;;;1.60;1.13;;;;;;;22.54;76.87;98506.09;10502094;28;20187;-85
2021/07/05 16:36:00;;;;;;;1.87;1.13;;;;;;;22.28;78.35;98512.88;10503538;28;20677;-82
2021/07/05 16:41:19;;;;;;;4.57;1.30;;;;;;;22.14;80.23;98510.94;10501467;28;20183;-85
2021/07/05 16:46:38;;;;;;;1.57;1.33;;;;;;;22.05;81.72;98527.88;10501844;28;20206;-84
2021/07/05 16:52:12;;;;;;;2.50;1.10;;;;;;;21.81;84.25;98527.28;10498977;28;20186;-85
2021/07/05 16:57:31;;;;;;;1.20;1.10;;;;;;;21.85;84.24;98536.22;10501527;28;20191;-85
2021/07/05 17:02:53;;;;;;;1.30;1.00;;;;;;;22.57;81.25;98519.13;10501361;28;20167;-84
2021/07/05 17:08:13;;;;;;;1.10;1.00;;;;;;;23.42;73.90;98516.16;10500613;28;20214;-85
2021/07/05 17:13:37;;;;;;;1.20;1.10;;;;;;;23.66;72.54;98514.56;10501019;28;20194;-85
2021/07/05 17:18:56;;;;;;;1.23;1.13;;;;;;;23.32;75.23;98534.44;10499394;28;20558;-85
2021/07/05 17:24:15;;;;;;;4.50;1.50;;;;;;;22.80;79.55;98532.13;10499948;28;20182;-85
2021/07/05 17:29:36;;;;;;;1.90;1.10;;;;;;;22.51;80.77;98537.94;10498484;28;20281;-84
2021/07/05 17:34:54;;;;;;;1.30;1.10;;;;;;;22.37;80.71;98535.97;10498477;28;20590;-82
2021/07/05 17:40:15;;;;;;;1.50;1.30;;;;;;;22.37;80.14;98533.19;10499916;28;20179;-82
2021/07/05 17:45:34;;;;;;;1.30;1.10;;;;;;;22.20;82.70;98548.97;10499387;28;20289;-83
2021/07/05 17:50:53;;;;;;;1.33;1.23;;;;;;;21.65;89.19;98552.25;10496421;28;20621;-84
2021/07/05 17:56:12;;;;;;;1.27;1.17;;;;;;;21.40;93.32;98550.78;10498265;28;20187;-82
2021/07/05 18:01:31;;;;;;;1.60;1.10;;;;;;;21.50;92.32;98551.44;10498775;28;20163;-82
2021/07/05 18:06:52;;;;;;;3.40;1.43;;;;;;;21.56;92.54;98557.97;10496543;28;20591;-81
2021/07/05 18:12:16;;;;;;;1.10;0.97;;;;;;;21.35;96.48;98559.88;10498502;28;20175;-82
2021/07/05 18:17:35;;;;;;;4.40;1.57;;;;;;;21.34;98.76;98560.34;10497914;28;20175;-83
2021/07/05 18:22:55;;;;;;;1.43;1.30;;;;;;;21.22;100.00;98558.63;10455768;28;20179;-85
2021/07/05 18:28:15;;;;;;;1.20;1.07;;;;;;;21.22;100.00;98562.19;10455246;28;20568;-84
2021/07/05 18:33:35;;;;;;;1.50;1.37;;;;;;;21.16;100.00;98557.75;10454839;28;20674;-84
2021/07/05 18:38:55;;;;;;;1.40;1.30;;;;;;;21.06;100.00;98561.91;10455178;28;20176;-83
2021/07/05 18:44:14;;;;;;;1.97;1.27;;;;;;;21.09;100.00;98560.91;10456133;28;20593;-84
2021/07/05 18:49:34;;;;;;;2.23;1.40;;;;;;;21.06;100.00;98550.72;10469160;28;20252;-83
2021/07/05 18:54:54;;;;;;;2.37;1.13;;;;;;;21.09;100.00;98542.13;10455784;28;20254;-84
2021/07/05 19:00:14;;;;;;;1.50;1.40;;;;;;;21.04;100.00;98542.78;10454636;28;20175;-84
2021/07/05 19:05:36;;;;;;;1.80;1.63;;;;;;;21.01;100.00;98543.75;10458848;28;20202;-85
2021/07/05 19:10:55;;;;;;;3.20;1.40;;;;;;;20.88;100.00;98555.72;10463301;28;20265;-83
2021/07/05 19:16:14;;;;;;;1.50;1.40;;;;;;;20.75;100.00;98561.56;10462492;28;20171;-84
2021/07/05 19:21:33;;;;;;;3.50;1.87;;;;;;;20.48;100.00;98564.56;10493590;28;20183;-83
2021/07/05 19:26:53;;;;;;;2.03;1.83;;;;;;;20.35;100.00;98561.25;10503756;28;20210;-84
2021/07/05 19:32:12;;;;;;;2.27;2.07;;;;;;;20.18;100.00;98576.09;10503734;28;20174;-82
2021/07/05 19:37:32;;;;;;;1.60;1.50;;;;;;;20.07;100.00;98579.44;10502842;28;20218;-85
2021/07/05 19:42:51;;;;;;;3.27;1.33;;;;;;;20.03;100.00;98587.19;10503344;28;20175;-84
2021/07/05 19:48:10;;;;;;;2.63;2.37;;;;;;;19.96;100.00;98584.00;10501372;28;20218;-85
2021/07/05 19:53:28;;;;;;;2.30;1.90;;;;;;;19.94;100.00;98592.03;10502820;28;20174;-85
2021/07/05 19:58:48;;;;;;;5.10;1.80;;;;;;;19.72;100.00;98597.13;10502282;28;20196;-84
2021/07/05 20:04:07;;;;;;;2.40;2.20;;;;;;;19.61;100.00;98585.69;10501592;28;20206;-83
2021/07/05 20:09:27;;;;;;;4.10;2.50;;;;;;;19.57;100.00;98582.28;10502513;28;20206;-83
2021/07/05 20:14:46;;;;;;;2.30;1.63;;;;;;;19.56;100.00;98583.53;10496025;28;20171;-84
2021/07/05 20:20:06;;;;;;;2.33;2.13;;;;;;;19.48;100.00;98599.06;10497599;28;20932;-83
2021/07/05 20:25:25;;;;;;;2.13;1.70;;;;;;;19.36;100.00;98605.59;10502569;28;20195;-85
2021/07/05 20:30:44;;;;;;;1.83;1.73;;;;;;;19.35;100.00;98604.06;10501144;28;20194;-82
2021/07/05 20:36:04;;;;;;;2.73;1.37;;;;;;;19.42;100.00;98614.91;10500425;28;20226;-82
2021/07/05 20:41:24;;;;;;;1.53;1.43;;;;;;;19.45;100.00;98618.75;10501052;28;20178;-83
2021/07/05 20:46:43;;;;;;;1.50;1.40;;;;;;;19.44;100.00;98609.59;10500699;28;20202;-81
2021/07/05 20:52:02;;;;;;;2.80;1.70;;;;;;;19.37;100.00;98603.59;10500342;28;20171;-81
2021/07/05 20:57:24;;;;;;;1.23;1.13;;;;;;;19.28;100.00;98617.56;10500590;28;20182;-82
2021/07/05 21:02:43;;;;;;;1.80;1.70;;;;;;;19.07;100.00;98612.91;10499464;28;20195;-83
2021/07/05 21:08:03;;;;;;;2.00;1.90;;;;;;;18.98;100.00;98609.38;10494817;28;20289;-81
2021/07/05 21:13:22;;;;;;;1.37;1.27;;;;;;;18.80;100.00;98601.00;10496248;28;20174;-83
2021/07/05 21:18:41;;;;;;;3.83;1.73;;;;;;;18.71;100.00;98612.94;10494378;28;20183;-82
2021/07/05 21:24:00;;;;;;;9.63;1.77;;;;;;;18.53;100.00;98612.94;10495303;28;20911;-83
2021/07/05 21:29:19;;;;;;;2.70;1.70;;;;;;;18.45;100.00;98610.94;10492926;28;20222;-84
2021/07/05 21:34:38;;;;;;;1.60;1.50;;;;;;;18.33;100.00;98603.47;10491618;28;20578;-83
2021/07/05 21:39:57;;;;;;;1.80;1.70;;;;;;;18.25;100.00;98595.91;10495032;28;20661;-82
2021/07/05 21:45:17;;;;;;;1.80;1.70;;;;;;;18.15;100.00;98605.44;10498401;28;20179;-85
2021/07/05 21:50:36;;;;;;;4.20;2.17;;;;;;;18.03;100.00;98606.31;10498184;28;20171;-84
2021/07/05 21:55:55;;;;;;;2.33;1.80;;;;;;;17.96;100.00;98606.59;10499336;28;20258;-86
2021/07/05 22:01:15;;;;;;;2.40;1.80;;;;;;;18.08;100.00;98597.38;10498215;28;20273;-82
2021/07/05 22:06:34;;;;;;;4.00;2.20;;;;;;;17.84;100.00;98607.50;10496643;28;20210;-85
2021/07/05 22:11:53;;;;;;;3.90;2.03;;;;;;;17.60;100.00;98601.69;10497638;28;20190;-83
2021/07/05 22:17:13;;;;;;;2.57;2.13;;;;;;;17.49;100.00;98591.41;10498483;28;20183;-85
2021/07/05 22:22:32;;;;;;;5.30;1.73;;;;;;;17.40;100.00;98589.38;10496146;28;20202;-85
2021/07/05 22:27:53;;;;;;;2.23;2.03;;;;;;;17.46;100.00;98595.91;10496706;28;20198;-85
2021/07/05 22:33:12;;;;;;;2.40;1.93;;;;;;;17.42;100.00;98609.19;10496713;28;20724;-85
2021/07/05 22:38:31;;;;;;;2.30;1.80;;;;;;;17.21;100.00;98614.75;10496261;28;20273;-85
2021/07/05 22:43:50;;;;;;;2.17;1.90;;;;;;;17.12;100.00;98612.66;10496879;28;20174;-82
2021/07/05 22:49:09;;;;;;;7.20;2.73;;;;;;;17.09;100.00;98605.25;10496087;28;20206;-82
2021/07/05 22:54:28;;;;;;;1.90;1.80;;;;;;;16.99;100.00;98605.66;10496347;28;20182;-82
2021/07/05 22:59:47;;;;;;;2.50;2.33;;;;;;;16.91;100.00;98609.91;10496629;28;20183;-81
2021/07/05 23:05:07;;;;;;;4.40;2.33;;;;;;;16.87;100.00;98603.69;10496001;28;20549;-82
2021/07/05 23:10:40;;;;;;;2.80;2.60;;;;;;;16.83;100.00;98600.28;10455880;28;20179;-84
2021/07/05 23:16:01;;;;;;;2.67;2.47;;;;;;;16.77;100.00;98595.75;10454683;28;20704;-82
2021/07/05 23:21:19;;;;;;;6.03;3.00;;;;;;;16.69;100.00;98592.44;10454409;28;20183;-83
2021/07/05 23:26:39;;;;;;;4.93;2.27;;;;;;;16.67;100.00;98589.38;10455377;28;20203;-83
2021/07/05 23:31:58;;;;;;;2.57;2.37;;;;;;;16.64;100.00;98578.38;10455341;28;20207;-82
2021/07/05 23:37:18;;;;;;;2.47;2.27;;;;;;;16.53;100.00;98578.75;10468132;28;20671;-81
2021/07/05 23:42:38;;;;;;;3.80;2.80;;;;;;;16.48;100.00;98578.53;10496576;28;20255;-82
2021/07/05 23:47:58;;;;;;;2.63;2.43;;;;;;;16.42;100.00;98574.78;10495125;28;20195;-84
2021/07/05 23:53:17;;;;;;;3.17;2.83;;;;;;;16.34;100.00;98573.50;10502534;28;20174;-82
2021/07/05 23:58:36;;;;;;;2.53;2.43;;;;;;;16.28;100.00;98569.72;10504087;28;20210;-83
